Pierrepont Manor, New York
Current Conditions -  °F | °C
As of 3:56 PM on Thursday 20 Nov 2014 (Local Time) from KART Reporting Station
Light Snow Light Snow  
Wind Chill: 18°   Ceiling: 4500
Heat Index: 31°   Visibility: 4mi
Dew Point: 13°   Wind: 22mph
Humidity: 47%   Direction: 270°W
Pressure: 29.79"   Gusts: 33mph
Location:  43.73°N, 76.06°W
Report Text: KART 202056Z AUTO 27019G29KT 4SM -SN BKN045 BKN055 OVC070 M01/M11 A2979 RMK AO2 PK WND 26037/2016 UPB13E19B34E37B47E52SNB19E34B37E47B52 SLP094 P0000 60001 T10061106 53007
Loading
Personal Weather Stations






























Interactive Weather Map New forecast layout! Learn more

10-Day Weather Forecast

Advertisements
Track Severe Weather on mobile